sensor_id;sensor_type;location;lat;lon;timestamp;P1;durP1;ratioP1;P2;durP2;ratioP2
76157;SDS011;64907;51.574;6.502;2023-03-01T00:00:53;11.23;;;9.52;;
76157;SDS011;64907;51.574;6.502;2023-03-01T00:03:21;10.05;;;8.75;;
76157;SDS011;64907;51.574;6.502;2023-03-01T00:05:46;11.18;;;9.45;;
76157;SDS011;64907;51.574;6.502;2023-03-01T00:08:11;10.45;;;8.68;;
76157;SDS011;64907;51.574;6.502;2023-03-01T00:10:37;11.57;;;9.70;;
76157;SDS011;64907;51.574;6.502;2023-03-01T00:13:02;14.38;;;9.18;;
76157;SDS011;64907;51.574;6.502;2023-03-01T00:15:27;13.18;;;9.98;;
76157;SDS011;64907;51.574;6.502;2023-03-01T00:17:52;10.55;;;8.63;;
76157;SDS011;64907;51.574;6.502;2023-03-01T00:20:17;11.82;;;9.45;;
76157;SDS011;64907;51.574;6.502;2023-03-01T00:22:43;12.38;;;10.07;;
76157;SDS011;64907;51.574;6.502;2023-03-01T00:25:08;11.40;;;8.85;;
76157;SDS011;64907;51.574;6.502;2023-03-01T00:27:34;15.63;;;9.20;;
76157;SDS011;64907;51.574;6.502;2023-03-01T00:29:59;13.68;;;9.93;;
76157;SDS011;64907;51.574;6.502;2023-03-01T00:32:24;11.40;;;9.07;;
76157;SDS011;64907;51.574;6.502;2023-03-01T00:34:49;10.63;;;8.93;;
76157;SDS011;64907;51.574;6.502;2023-03-01T00:39:48;12.93;;;9.15;;
76157;SDS011;64907;51.574;6.502;2023-03-01T00:42:14;11.85;;;9.63;;
76157;SDS011;64907;51.574;6.502;2023-03-01T00:44:39;13.88;;;10.93;;
76157;SDS011;64907;51.574;6.502;2023-03-01T00:47:05;13.88;;;10.32;;
76157;SDS011;64907;51.574;6.502;2023-03-01T00:49:30;14.35;;;10.20;;
76157;SDS011;64907;51.574;6.502;2023-03-01T00:51:55;11.82;;;9.43;;
76157;SDS011;64907;51.574;6.502;2023-03-01T00:54:20;13.63;;;9.55;;
76157;SDS011;64907;51.574;6.502;2023-03-01T00:56:45;20.02;;;11.25;;
76157;SDS011;64907;51.574;6.502;2023-03-01T00:59:11;10.80;;;9.70;;
76157;SDS011;64907;51.574;6.502;2023-03-01T01:04:06;10.75;;;9.35;;
76157;SDS011;64907;51.574;6.502;2023-03-01T01:06:36;10.75;;;9.65;;
76157;SDS011;64907;51.574;6.502;2023-03-01T01:09:03;14.70;;;10.00;;
76157;SDS011;64907;51.574;6.502;2023-03-01T01:11:28;12.90;;;9.88;;
76157;SDS011;64907;51.574;6.502;2023-03-01T01:13:54;12.82;;;10.27;;
76157;SDS011;64907;51.574;6.502;2023-03-01T01:16:20;12.98;;;9.80;;
76157;SDS011;64907;51.574;6.502;2023-03-01T01:18:46;11.57;;;10.10;;
76157;SDS011;64907;51.574;6.502;2023-03-01T01:21:12;15.77;;;10.07;;
76157;SDS011;64907;51.574;6.502;2023-03-01T01:23:38;13.80;;;10.15;;
76157;SDS011;64907;51.574;6.502;2023-03-01T01:26:08;13.70;;;10.40;;
76157;SDS011;64907;51.574;6.502;2023-03-01T01:28:33;14.07;;;10.55;;
76157;SDS011;64907;51.574;6.502;2023-03-01T01:30:59;15.63;;;10.23;;
76157;SDS011;64907;51.574;6.502;2023-03-01T01:33:24;12.90;;;10.07;;
76157;SDS011;64907;51.574;6.502;2023-03-01T01:35:49;11.27;;;9.75;;
76157;SDS011;64907;51.574;6.502;2023-03-01T01:38:14;16.13;;;10.10;;
76157;SDS011;64907;51.574;6.502;2023-03-01T01:40:43;13.88;;;10.73;;
76157;SDS011;64907;51.574;6.502;2023-03-01T01:43:16;11.40;;;9.60;;
76157;SDS011;64907;51.574;6.502;2023-03-01T01:45:42;12.88;;;10.27;;
76157;SDS011;64907;51.574;6.502;2023-03-01T01:48:10;11.77;;;9.55;;
76157;SDS011;64907;51.574;6.502;2023-03-01T01:50:38;13.45;;;10.23;;
76157;SDS011;64907;51.574;6.502;2023-03-01T01:53:05;13.07;;;9.88;;
76157;SDS011;64907;51.574;6.502;2023-03-01T01:55:31;15.18;;;9.95;;
76157;SDS011;64907;51.574;6.502;2023-03-01T01:57:57;12.73;;;9.63;;
76157;SDS011;64907;51.574;6.502;2023-03-01T02:00:26;15.55;;;10.45;;
76157;SDS011;64907;51.574;6.502;2023-03-01T02:02:54;13.88;;;10.35;;
76157;SDS011;64907;51.574;6.502;2023-03-01T02:05:24;15.20;;;11.07;;
76157;SDS011;64907;51.574;6.502;2023-03-01T02:07:51;13.65;;;10.43;;
76157;SDS011;64907;51.574;6.502;2023-03-01T02:10:19;11.55;;;9.48;;
76157;SDS011;64907;51.574;6.502;2023-03-01T02:12:44;13.35;;;10.50;;
76157;SDS011;64907;51.574;6.502;2023-03-01T02:15:10;13.85;;;10.40;;
76157;SDS011;64907;51.574;6.502;2023-03-01T02:17:35;14.68;;;10.40;;
76157;SDS011;64907;51.574;6.502;2023-03-01T02:22:34;15.88;;;11.50;;
76157;SDS011;64907;51.574;6.502;2023-03-01T02:25:07;13.98;;;10.93;;
76157;SDS011;64907;51.574;6.502;2023-03-01T02:30:14;14.13;;;10.57;;
76157;SDS011;64907;51.574;6.502;2023-03-01T02:32:40;15.40;;;10.48;;
76157;SDS011;64907;51.574;6.502;2023-03-01T02:35:07;14.52;;;10.43;;
76157;SDS011;64907;51.574;6.502;2023-03-01T02:37:33;16.42;;;12.02;;
76157;SDS011;64907;51.574;6.502;2023-03-01T02:40:02;18.85;;;13.18;;
76157;SDS011;64907;51.574;6.502;2023-03-01T02:42:33;14.90;;;11.60;;
76157;SDS011;64907;51.574;6.502;2023-03-01T02:45:00;14.95;;;10.77;;
76157;SDS011;64907;51.574;6.502;2023-03-01T02:47:26;14.95;;;10.88;;
76157;SDS011;64907;51.574;6.502;2023-03-01T02:49:51;18.08;;;10.73;;
76157;SDS011;64907;51.574;6.502;2023-03-01T02:52:25;14.80;;;10.65;;
76157;SDS011;64907;51.574;6.502;2023-03-01T02:57:29;16.35;;;10.80;;
76157;SDS011;64907;51.574;6.502;2023-03-01T02:59:56;12.52;;;10.23;;
76157;SDS011;64907;51.574;6.502;2023-03-01T03:02:23;15.45;;;10.93;;
76157;SDS011;64907;51.574;6.502;2023-03-01T03:05:02;12.50;;;9.95;;
76157;SDS011;64907;51.574;6.502;2023-03-01T03:07:27;14.60;;;10.25;;
76157;SDS011;64907;51.574;6.502;2023-03-01T03:09:52;14.97;;;11.10;;
76157;SDS011;64907;51.574;6.502;2023-03-01T03:12:17;13.73;;;10.68;;
76157;SDS011;64907;51.574;6.502;2023-03-01T03:14:42;14.32;;;10.40;;
76157;SDS011;64907;51.574;6.502;2023-03-01T03:17:07;15.23;;;10.63;;
76157;SDS011;64907;51.574;6.502;2023-03-01T03:19:33;16.08;;;10.82;;
76157;SDS011;64907;51.574;6.502;2023-03-01T03:21:58;16.25;;;10.70;;
76157;SDS011;64907;51.574;6.502;2023-03-01T03:24:24;10.50;;;9.23;;
76157;SDS011;64907;51.574;6.502;2023-03-01T03:26:49;13.20;;;10.85;;
76157;SDS011;64907;51.574;6.502;2023-03-01T03:29:14;12.60;;;9.77;;
76157;SDS011;64907;51.574;6.502;2023-03-01T03:31:41;15.98;;;11.27;;
76157;SDS011;64907;51.574;6.502;2023-03-01T03:34:07;14.73;;;11.13;;
76157;SDS011;64907;51.574;6.502;2023-03-01T03:36:32;14.52;;;11.60;;
76157;SDS011;64907;51.574;6.502;2023-03-01T03:41:27;15.00;;;10.75;;
76157;SDS011;64907;51.574;6.502;2023-03-01T03:43:53;14.70;;;10.38;;
76157;SDS011;64907;51.574;6.502;2023-03-01T03:46:18;16.35;;;10.05;;
76157;SDS011;64907;51.574;6.502;2023-03-01T03:48:45;16.63;;;10.82;;
76157;SDS011;64907;51.574;6.502;2023-03-01T03:51:14;12.97;;;9.53;;
76157;SDS011;64907;51.574;6.502;2023-03-01T03:53:40;14.55;;;11.35;;
76157;SDS011;64907;51.574;6.502;2023-03-01T03:56:05;16.93;;;11.43;;
76157;SDS011;64907;51.574;6.502;2023-03-01T03:58:30;14.52;;;10.77;;
76157;SDS011;64907;51.574;6.502;2023-03-01T04:00:56;18.60;;;11.25;;
76157;SDS011;64907;51.574;6.502;2023-03-01T04:03:22;16.92;;;12.70;;
76157;SDS011;64907;51.574;6.502;2023-03-01T04:05:51;17.00;;;11.57;;
76157;SDS011;64907;51.574;6.502;2023-03-01T04:08:17;17.55;;;12.43;;
76157;SDS011;64907;51.574;6.502;2023-03-01T04:10:45;17.85;;;11.95;;
76157;SDS011;64907;51.574;6.502;2023-03-01T04:13:11;14.38;;;10.90;;
76157;SDS011;64907;51.574;6.502;2023-03-01T04:15:37;17.35;;;11.70;;
76157;SDS011;64907;51.574;6.502;2023-03-01T04:18:02;15.38;;;11.00;;
76157;SDS011;64907;51.574;6.502;2023-03-01T04:20:28;15.05;;;11.20;;
76157;SDS011;64907;51.574;6.502;2023-03-01T04:22:58;16.15;;;11.65;;
76157;SDS011;64907;51.574;6.502;2023-03-01T04:25:33;18.60;;;11.40;;
76157;SDS011;64907;51.574;6.502;2023-03-01T04:27:58;19.20;;;10.68;;
76157;SDS011;64907;51.574;6.502;2023-03-01T04:30:23;16.63;;;10.70;;
76157;SDS011;64907;51.574;6.502;2023-03-01T04:32:53;14.88;;;11.27;;
76157;SDS011;64907;51.574;6.502;2023-03-01T04:35:18;15.05;;;10.90;;
76157;SDS011;64907;51.574;6.502;2023-03-01T04:37:43;18.92;;;11.75;;
76157;SDS011;64907;51.574;6.502;2023-03-01T04:40:12;14.77;;;11.27;;
76157;SDS011;64907;51.574;6.502;2023-03-01T04:42:40;16.73;;;11.55;;
76157;SDS011;64907;51.574;6.502;2023-03-01T04:45:05;16.15;;;10.70;;
76157;SDS011;64907;51.574;6.502;2023-03-01T04:47:41;16.45;;;11.18;;
76157;SDS011;64907;51.574;6.502;2023-03-01T04:50:07;22.58;;;11.85;;
76157;SDS011;64907;51.574;6.502;2023-03-01T04:52:33;16.13;;;11.32;;
76157;SDS011;64907;51.574;6.502;2023-03-01T04:54:58;15.95;;;11.65;;
76157;SDS011;64907;51.574;6.502;2023-03-01T04:57:23;19.48;;;11.23;;
76157;SDS011;64907;51.574;6.502;2023-03-01T04:59:48;17.52;;;11.90;;
76157;SDS011;64907;51.574;6.502;2023-03-01T05:02:15;18.73;;;11.33;;
76157;SDS011;64907;51.574;6.502;2023-03-01T05:04:40;18.27;;;11.90;;
76157;SDS011;64907;51.574;6.502;2023-03-01T05:07:05;19.15;;;12.38;;
76157;SDS011;64907;51.574;6.502;2023-03-01T05:09:30;17.07;;;11.57;;
76157;SDS011;64907;51.574;6.502;2023-03-01T05:11:55;22.20;;;13.20;;
76157;SDS011;64907;51.574;6.502;2023-03-01T05:14:20;16.60;;;12.10;;
76157;SDS011;64907;51.574;6.502;2023-03-01T05:16:46;17.55;;;12.10;;
76157;SDS011;64907;51.574;6.502;2023-03-01T05:19:11;20.13;;;12.33;;
76157;SDS011;64907;51.574;6.502;2023-03-01T05:21:40;17.10;;;11.32;;
76157;SDS011;64907;51.574;6.502;2023-03-01T05:24:25;18.20;;;12.02;;
76157;SDS011;64907;51.574;6.502;2023-03-01T05:26:50;18.50;;;12.27;;
76157;SDS011;64907;51.574;6.502;2023-03-01T05:29:17;21.48;;;12.80;;
76157;SDS011;64907;51.574;6.502;2023-03-01T05:31:42;18.63;;;11.43;;
76157;SDS011;64907;51.574;6.502;2023-03-01T05:34:07;17.50;;;12.48;;
76157;SDS011;64907;51.574;6.502;2023-03-01T05:36:32;25.20;;;14.88;;
76157;SDS011;64907;51.574;6.502;2023-03-01T05:38:57;21.00;;;14.15;;
76157;SDS011;64907;51.574;6.502;2023-03-01T05:41:23;18.93;;;13.40;;
76157;SDS011;64907;51.574;6.502;2023-03-01T05:43:48;20.13;;;12.87;;
76157;SDS011;64907;51.574;6.502;2023-03-01T05:46:14;20.30;;;12.63;;
76157;SDS011;64907;51.574;6.502;2023-03-01T05:48:42;18.90;;;12.25;;
76157;SDS011;64907;51.574;6.502;2023-03-01T05:51:07;17.77;;;12.15;;
76157;SDS011;64907;51.574;6.502;2023-03-01T05:53:32;19.75;;;13.45;;
76157;SDS011;64907;51.574;6.502;2023-03-01T05:55:59;17.50;;;13.20;;
76157;SDS011;64907;51.574;6.502;2023-03-01T05:58:27;20.58;;;12.60;;
76157;SDS011;64907;51.574;6.502;2023-03-01T06:00:52;24.80;;;13.60;;
76157;SDS011;64907;51.574;6.502;2023-03-01T06:03:17;25.20;;;14.93;;
76157;SDS011;64907;51.574;6.502;2023-03-01T06:05:43;18.97;;;13.53;;
76157;SDS011;64907;51.574;6.502;2023-03-01T06:08:09;22.77;;;13.97;;
76157;SDS011;64907;51.574;6.502;2023-03-01T06:10:34;19.33;;;14.03;;
76157;SDS011;64907;51.574;6.502;2023-03-01T06:15:28;18.57;;;13.83;;
76157;SDS011;64907;51.574;6.502;2023-03-01T06:17:56;24.63;;;15.20;;
76157;SDS011;64907;51.574;6.502;2023-03-01T06:20:22;20.90;;;13.80;;
76157;SDS011;64907;51.574;6.502;2023-03-01T06:22:48;20.70;;;13.03;;
76157;SDS011;64907;51.574;6.502;2023-03-01T06:25:15;23.80;;;14.07;;
76157;SDS011;64907;51.574;6.502;2023-03-01T06:27:40;21.25;;;14.05;;
76157;SDS011;64907;51.574;6.502;2023-03-01T06:30:07;17.90;;;12.97;;
76157;SDS011;64907;51.574;6.502;2023-03-01T06:32:32;23.60;;;14.05;;
76157;SDS011;64907;51.574;6.502;2023-03-01T06:34:59;20.85;;;13.40;;
76157;SDS011;64907;51.574;6.502;2023-03-01T06:37:27;23.38;;;13.07;;
76157;SDS011;64907;51.574;6.502;2023-03-01T06:39:52;18.97;;;12.87;;
76157;SDS011;64907;51.574;6.502;2023-03-01T06:42:17;18.03;;;12.97;;
76157;SDS011;64907;51.574;6.502;2023-03-01T06:44:43;20.77;;;13.43;;
76157;SDS011;64907;51.574;6.502;2023-03-01T06:47:08;24.00;;;13.07;;
76157;SDS011;64907;51.574;6.502;2023-03-01T06:49:34;21.63;;;13.55;;
76157;SDS011;64907;51.574;6.502;2023-03-01T06:51:59;18.23;;;13.18;;
76157;SDS011;64907;51.574;6.502;2023-03-01T06:54:24;23.38;;;14.63;;
76157;SDS011;64907;51.574;6.502;2023-03-01T06:56:50;18.17;;;12.77;;
76157;SDS011;64907;51.574;6.502;2023-03-01T06:59:15;20.45;;;14.23;;
76157;SDS011;64907;51.574;6.502;2023-03-01T07:01:40;20.25;;;13.55;;
76157;SDS011;64907;51.574;6.502;2023-03-01T07:04:07;18.75;;;13.20;;
76157;SDS011;64907;51.574;6.502;2023-03-01T07:06:32;24.03;;;14.10;;
76157;SDS011;64907;51.574;6.502;2023-03-01T07:08:57;20.58;;;14.27;;
76157;SDS011;64907;51.574;6.502;2023-03-01T07:11:22;28.10;;;15.27;;
76157;SDS011;64907;51.574;6.502;2023-03-01T07:13:48;19.27;;;13.05;;
76157;SDS011;64907;51.574;6.502;2023-03-01T07:16:13;23.55;;;14.38;;
76157;SDS011;64907;51.574;6.502;2023-03-01T07:18:39;14.52;;;12.07;;
76157;SDS011;64907;51.574;6.502;2023-03-01T07:21:05;18.85;;;11.98;;
76157;SDS011;64907;51.574;6.502;2023-03-01T07:23:30;18.38;;;11.60;;
76157;SDS011;64907;51.574;6.502;2023-03-01T07:25:56;17.25;;;11.32;;
76157;SDS011;64907;51.574;6.502;2023-03-01T07:28:24;20.83;;;11.20;;
76157;SDS011;64907;51.574;6.502;2023-03-01T07:30:49;16.35;;;11.07;;
76157;SDS011;64907;51.574;6.502;2023-03-01T07:33:16;16.00;;;10.80;;
76157;SDS011;64907;51.574;6.502;2023-03-01T07:35:41;13.07;;;9.95;;
76157;SDS011;64907;51.574;6.502;2023-03-01T07:38:06;15.45;;;10.65;;
76157;SDS011;64907;51.574;6.502;2023-03-01T07:40:31;15.73;;;10.25;;
76157;SDS011;64907;51.574;6.502;2023-03-01T07:42:57;15.32;;;9.77;;
76157;SDS011;64907;51.574;6.502;2023-03-01T07:45:22;13.57;;;10.65;;
76157;SDS011;64907;51.574;6.502;2023-03-01T07:47:47;16.00;;;9.65;;
76157;SDS011;64907;51.574;6.502;2023-03-01T07:50:14;12.55;;;9.43;;
76157;SDS011;64907;51.574;6.502;2023-03-01T07:52:40;13.85;;;9.57;;
76157;SDS011;64907;51.574;6.502;2023-03-01T07:55:05;14.73;;;10.45;;
76157;SDS011;64907;51.574;6.502;2023-03-01T07:57:30;13.65;;;9.95;;
76157;SDS011;64907;51.574;6.502;2023-03-01T07:59:56;12.38;;;9.82;;
76157;SDS011;64907;51.574;6.502;2023-03-01T08:02:21;16.50;;;9.90;;
76157;SDS011;64907;51.574;6.502;2023-03-01T08:04:46;11.60;;;8.63;;
76157;SDS011;64907;51.574;6.502;2023-03-01T08:07:12;13.55;;;9.90;;
76157;SDS011;64907;51.574;6.502;2023-03-01T08:12:06;18.00;;;9.70;;
76157;SDS011;64907;51.574;6.502;2023-03-01T08:14:34;11.93;;;9.95;;
76157;SDS011;64907;51.574;6.502;2023-03-01T08:16:59;11.82;;;9.57;;
76157;SDS011;64907;51.574;6.502;2023-03-01T08:19:25;13.45;;;9.38;;
76157;SDS011;64907;51.574;6.502;2023-03-01T08:21:50;14.20;;;9.23;;
76157;SDS011;64907;51.574;6.502;2023-03-01T08:24:15;13.43;;;9.75;;
76157;SDS011;64907;51.574;6.502;2023-03-01T08:26:50;10.65;;;8.57;;
76157;SDS011;64907;51.574;6.502;2023-03-01T08:29:15;10.27;;;8.98;;
76157;SDS011;64907;51.574;6.502;2023-03-01T08:31:40;10.70;;;9.60;;
76157;SDS011;64907;51.574;6.502;2023-03-01T08:34:10;11.07;;;9.55;;
76157;SDS011;64907;51.574;6.502;2023-03-01T08:36:36;12.43;;;9.82;;
76157;SDS011;64907;51.574;6.502;2023-03-01T08:39:02;10.98;;;9.60;;
76157;SDS011;64907;51.574;6.502;2023-03-01T08:41:27;11.27;;;9.25;;
76157;SDS011;64907;51.574;6.502;2023-03-01T08:43:53;13.05;;;8.88;;
76157;SDS011;64907;51.574;6.502;2023-03-01T08:46:23;13.23;;;9.55;;
76157;SDS011;64907;51.574;6.502;2023-03-01T08:48:48;13.50;;;10.40;;
76157;SDS011;64907;51.574;6.502;2023-03-01T08:51:15;11.93;;;9.73;;
76157;SDS011;64907;51.574;6.502;2023-03-01T08:53:40;15.15;;;9.80;;
76157;SDS011;64907;51.574;6.502;2023-03-01T08:56:06;12.00;;;9.13;;
76157;SDS011;64907;51.574;6.502;2023-03-01T08:58:31;10.05;;;8.40;;
76157;SDS011;64907;51.574;6.502;2023-03-01T09:00:56;14.00;;;9.27;;
76157;SDS011;64907;51.574;6.502;2023-03-01T09:03:22;11.90;;;9.13;;
76157;SDS011;64907;51.574;6.502;2023-03-01T09:05:47;11.15;;;8.98;;
76157;SDS011;64907;51.574;6.502;2023-03-01T09:08:14;10.13;;;8.65;;
76157;SDS011;64907;51.574;6.502;2023-03-01T09:10:39;13.13;;;9.68;;
76157;SDS011;64907;51.574;6.502;2023-03-01T09:13:04;11.68;;;8.32;;
76157;SDS011;64907;51.574;6.502;2023-03-01T09:15:32;13.25;;;8.93;;
76157;SDS011;64907;51.574;6.502;2023-03-01T09:17:58;11.55;;;8.85;;
76157;SDS011;64907;51.574;6.502;2023-03-01T09:20:24;11.13;;;8.50;;
76157;SDS011;64907;51.574;6.502;2023-03-01T09:22:49;12.85;;;9.20;;
76157;SDS011;64907;51.574;6.502;2023-03-01T09:25:14;14.88;;;8.40;;
76157;SDS011;64907;51.574;6.502;2023-03-01T09:27:39;12.77;;;9.73;;
76157;SDS011;64907;51.574;6.502;2023-03-01T09:30:05;11.45;;;8.50;;
76157;SDS011;64907;51.574;6.502;2023-03-01T09:32:30;12.27;;;8.68;;
76157;SDS011;64907;51.574;6.502;2023-03-01T09:34:55;10.70;;;8.68;;
76157;SDS011;64907;51.574;6.502;2023-03-01T09:37:29;15.88;;;9.25;;
76157;SDS011;64907;51.574;6.502;2023-03-01T09:39:55;11.90;;;8.00;;
76157;SDS011;64907;51.574;6.502;2023-03-01T09:42:20;12.33;;;8.77;;
76157;SDS011;64907;51.574;6.502;2023-03-01T09:44:48;10.30;;;8.65;;
76157;SDS011;64907;51.574;6.502;2023-03-01T09:47:19;13.02;;;8.60;;
76157;SDS011;64907;51.574;6.502;2023-03-01T09:50:33;9.63;;;7.97;;
76157;SDS011;64907;51.574;6.502;2023-03-01T09:55:08;10.88;;;8.48;;
76157;SDS011;64907;51.574;6.502;2023-03-01T10:05:14;9.05;;;8.15;;
76157;SDS011;64907;51.574;6.502;2023-03-01T10:07:56;9.73;;;7.82;;
76157;SDS011;64907;51.574;6.502;2023-03-01T10:10:28;8.23;;;7.40;;
76157;SDS011;64907;51.574;6.502;2023-03-01T10:12:56;9.65;;;7.88;;
76157;SDS011;64907;51.574;6.502;2023-03-01T10:15:28;11.45;;;8.05;;
76157;SDS011;64907;51.574;6.502;2023-03-01T10:17:56;8.98;;;7.95;;
76157;SDS011;64907;51.574;6.502;2023-03-01T10:20:24;8.82;;;7.65;;
76157;SDS011;64907;51.574;6.502;2023-03-01T10:22:50;10.68;;;7.25;;
76157;SDS011;64907;51.574;6.502;2023-03-01T10:25:20;9.80;;;6.97;;
76157;SDS011;64907;51.574;6.502;2023-03-01T10:27:54;8.75;;;7.32;;
76157;SDS011;64907;51.574;6.502;2023-03-01T10:30:39;9.15;;;7.38;;
76157;SDS011;64907;51.574;6.502;2023-03-01T10:35:44;10.55;;;7.57;;
76157;SDS011;64907;51.574;6.502;2023-03-01T10:38:10;10.80;;;7.28;;
76157;SDS011;64907;51.574;6.502;2023-03-01T10:40:36;9.40;;;7.50;;
76157;SDS011;64907;51.574;6.502;2023-03-01T10:43:20;7.72;;;6.82;;
76157;SDS011;64907;51.574;6.502;2023-03-01T10:45:46;7.68;;;6.55;;
76157;SDS011;64907;51.574;6.502;2023-03-01T10:48:13;8.88;;;7.00;;
76157;SDS011;64907;51.574;6.502;2023-03-01T10:50:43;9.98;;;6.78;;
76157;SDS011;64907;51.574;6.502;2023-03-01T10:53:26;7.75;;;6.82;;
76157;SDS011;64907;51.574;6.502;2023-03-01T10:55:57;9.85;;;7.57;;
76157;SDS011;64907;51.574;6.502;2023-03-01T10:58:23;7.20;;;6.50;;
76157;SDS011;64907;51.574;6.502;2023-03-01T11:00:50;7.75;;;7.00;;
76157;SDS011;64907;51.574;6.502;2023-03-01T11:03:18;10.70;;;7.05;;
76157;SDS011;64907;51.574;6.502;2023-03-01T11:08:41;10.55;;;7.03;;
76157;SDS011;64907;51.574;6.502;2023-03-01T11:13:40;8.43;;;7.00;;
76157;SDS011;64907;51.574;6.502;2023-03-01T11:16:14;8.48;;;7.20;;
76157;SDS011;64907;51.574;6.502;2023-03-01T11:18:39;13.30;;;7.07;;
76157;SDS011;64907;51.574;6.502;2023-03-01T11:21:04;7.55;;;6.30;;
76157;SDS011;64907;51.574;6.502;2023-03-01T11:23:30;12.73;;;6.65;;
76157;SDS011;64907;51.574;6.502;2023-03-01T11:25:58;7.43;;;6.82;;
76157;SDS011;64907;51.574;6.502;2023-03-01T11:28:25;8.23;;;6.63;;
76157;SDS011;64907;51.574;6.502;2023-03-01T11:30:53;9.90;;;6.90;;
76157;SDS011;64907;51.574;6.502;2023-03-01T11:36:00;7.95;;;6.03;;
76157;SDS011;64907;51.574;6.502;2023-03-01T11:38:26;9.90;;;6.63;;
76157;SDS011;64907;51.574;6.502;2023-03-01T11:43:40;6.55;;;5.95;;
76157;SDS011;64907;51.574;6.502;2023-03-01T11:54:17;8.48;;;7.07;;
76157;SDS011;64907;51.574;6.502;2023-03-01T11:56:47;12.43;;;7.97;;
76157;SDS011;64907;51.574;6.502;2023-03-01T12:04:29;8.60;;;6.78;;
76157;SDS011;64907;51.574;6.502;2023-03-01T12:06:57;7.72;;;6.93;;
76157;SDS011;64907;51.574;6.502;2023-03-01T12:09:34;8.00;;;7.20;;
76157;SDS011;64907;51.574;6.502;2023-03-01T12:14:51;7.22;;;6.22;;
76157;SDS011;64907;51.574;6.502;2023-03-01T12:20:21;7.28;;;6.57;;
76157;SDS011;64907;51.574;6.502;2023-03-01T12:22:59;7.90;;;6.82;;
76157;SDS011;64907;51.574;6.502;2023-03-01T12:33:42;6.70;;;5.90;;
76157;SDS011;64907;51.574;6.502;2023-03-01T12:36:22;6.97;;;5.70;;
76157;SDS011;64907;51.574;6.502;2023-03-01T12:39:11;6.63;;;5.90;;
76157;SDS011;64907;51.574;6.502;2023-03-01T12:49:44;8.05;;;6.45;;
76157;SDS011;64907;51.574;6.502;2023-03-01T12:52:16;6.82;;;6.05;;
76157;SDS011;64907;51.574;6.502;2023-03-01T12:54:46;7.47;;;6.20;;
76157;SDS011;64907;51.574;6.502;2023-03-01T12:57:15;9.20;;;5.88;;
76157;SDS011;64907;51.574;6.502;2023-03-01T13:02:24;8.55;;;6.55;;
76157;SDS011;64907;51.574;6.502;2023-03-01T13:08:22;7.88;;;6.63;;
76157;SDS011;64907;51.574;6.502;2023-03-01T13:20:15;9.40;;;6.68;;
76157;SDS011;64907;51.574;6.502;2023-03-01T13:22:41;8.25;;;7.32;;
76157;SDS011;64907;51.574;6.502;2023-03-01T13:27:38;7.63;;;6.43;;
76157;SDS011;64907;51.574;6.502;2023-03-01T13:30:03;8.18;;;6.38;;
76157;SDS011;64907;51.574;6.502;2023-03-01T13:32:31;6.97;;;6.28;;
76157;SDS011;64907;51.574;6.502;2023-03-01T13:34:58;8.02;;;6.40;;
76157;SDS011;64907;51.574;6.502;2023-03-01T13:37:25;7.88;;;6.60;;
76157;SDS011;64907;51.574;6.502;2023-03-01T13:39:51;7.68;;;6.88;;
76157;SDS011;64907;51.574;6.502;2023-03-01T13:42:33;7.45;;;6.75;;
76157;SDS011;64907;51.574;6.502;2023-03-01T13:45:01;8.88;;;7.10;;
76157;SDS011;64907;51.574;6.502;2023-03-01T13:47:33;11.43;;;8.02;;
76157;SDS011;64907;51.574;6.502;2023-03-01T13:50:03;8.90;;;6.25;;
76157;SDS011;64907;51.574;6.502;2023-03-01T13:52:42;7.65;;;6.30;;
76157;SDS011;64907;51.574;6.502;2023-03-01T13:57:39;7.75;;;6.90;;
76157;SDS011;64907;51.574;6.502;2023-03-01T14:00:05;11.70;;;7.35;;
76157;SDS011;64907;51.574;6.502;2023-03-01T14:02:31;8.88;;;7.30;;
76157;SDS011;64907;51.574;6.502;2023-03-01T14:04:57;8.23;;;7.28;;
76157;SDS011;64907;51.574;6.502;2023-03-01T14:07:23;8.10;;;7.30;;
76157;SDS011;64907;51.574;6.502;2023-03-01T14:10:04;7.95;;;6.78;;
76157;SDS011;64907;51.574;6.502;2023-03-01T14:20:38;8.65;;;7.80;;
76157;SDS011;64907;51.574;6.502;2023-03-01T14:23:09;11.15;;;8.75;;
76157;SDS011;64907;51.574;6.502;2023-03-01T14:25:35;12.35;;;8.65;;
76157;SDS011;64907;51.574;6.502;2023-03-01T14:28:11;11.35;;;7.88;;
76157;SDS011;64907;51.574;6.502;2023-03-01T14:30:40;12.75;;;8.20;;
76157;SDS011;64907;51.574;6.502;2023-03-01T14:33:16;13.55;;;8.40;;
76157;SDS011;64907;51.574;6.502;2023-03-01T14:35:42;10.05;;;8.10;;
76157;SDS011;64907;51.574;6.502;2023-03-01T14:38:19;9.90;;;7.90;;
76157;SDS011;64907;51.574;6.502;2023-03-01T14:40:44;10.15;;;8.23;;
76157;SDS011;64907;51.574;6.502;2023-03-01T14:43:10;11.07;;;8.27;;
76157;SDS011;64907;51.574;6.502;2023-03-01T14:45:36;9.02;;;8.02;;
76157;SDS011;64907;51.574;6.502;2023-03-01T14:48:02;9.88;;;8.57;;
76157;SDS011;64907;51.574;6.502;2023-03-01T14:50:32;10.48;;;8.20;;
76157;SDS011;64907;51.574;6.502;2023-03-01T14:53:03;11.23;;;8.00;;
76157;SDS011;64907;51.574;6.502;2023-03-01T14:55:29;10.85;;;8.27;;
76157;SDS011;64907;51.574;6.502;2023-03-01T14:58:03;10.50;;;8.38;;
76157;SDS011;64907;51.574;6.502;2023-03-01T15:00:31;11.65;;;8.43;;
76157;SDS011;64907;51.574;6.502;2023-03-01T15:02:58;9.02;;;8.15;;
76157;SDS011;64907;51.574;6.502;2023-03-01T15:05:29;10.70;;;8.10;;
76157;SDS011;64907;51.574;6.502;2023-03-01T15:08:02;10.93;;;8.48;;
76157;SDS011;64907;51.574;6.502;2023-03-01T15:10:37;9.98;;;7.95;;
76157;SDS011;64907;51.574;6.502;2023-03-01T15:13:14;10.07;;;8.68;;
76157;SDS011;64907;51.574;6.502;2023-03-01T15:15:45;12.05;;;8.55;;
76157;SDS011;64907;51.574;6.502;2023-03-01T15:18:21;9.50;;;8.20;;
76157;SDS011;64907;51.574;6.502;2023-03-01T15:20:48;10.98;;;8.85;;
76157;SDS011;64907;51.574;6.502;2023-03-01T15:23:24;10.95;;;7.82;;
76157;SDS011;64907;51.574;6.502;2023-03-01T15:25:52;10.70;;;8.90;;
76157;SDS011;64907;51.574;6.502;2023-03-01T15:28:30;9.40;;;8.43;;
76157;SDS011;64907;51.574;6.502;2023-03-01T15:31:01;12.05;;;8.48;;
76157;SDS011;64907;51.574;6.502;2023-03-01T15:33:37;9.32;;;8.38;;
76157;SDS011;64907;51.574;6.502;2023-03-01T15:36:04;9.23;;;8.25;;
76157;SDS011;64907;51.574;6.502;2023-03-01T15:38:52;11.18;;;8.75;;
76157;SDS011;64907;51.574;6.502;2023-03-01T15:41:27;8.88;;;7.97;;
76157;SDS011;64907;51.574;6.502;2023-03-01T15:43:52;10.30;;;8.18;;
76157;SDS011;64907;51.574;6.502;2023-03-01T15:48:53;10.55;;;8.40;;
76157;SDS011;64907;51.574;6.502;2023-03-01T15:51:22;8.77;;;7.85;;
76157;SDS011;64907;51.574;6.502;2023-03-01T15:53:51;9.30;;;7.70;;
76157;SDS011;64907;51.574;6.502;2023-03-01T15:56:17;8.82;;;7.47;;
76157;SDS011;64907;51.574;6.502;2023-03-01T15:58:42;9.97;;;8.17;;
76157;SDS011;64907;51.574;6.502;2023-03-01T16:01:14;10.77;;;8.15;;
76157;SDS011;64907;51.574;6.502;2023-03-01T16:03:40;8.75;;;7.40;;
76157;SDS011;64907;51.574;6.502;2023-03-01T16:06:05;9.27;;;7.70;;
76157;SDS011;64907;51.574;6.502;2023-03-01T16:08:31;9.60;;;7.30;;
76157;SDS011;64907;51.574;6.502;2023-03-01T16:10:57;8.13;;;7.20;;
76157;SDS011;64907;51.574;6.502;2023-03-01T16:13:34;10.18;;;7.13;;
76157;SDS011;64907;51.574;6.502;2023-03-01T16:15:59;14.60;;;7.43;;
76157;SDS011;64907;51.574;6.502;2023-03-01T16:18:26;9.93;;;6.97;;
76157;SDS011;64907;51.574;6.502;2023-03-01T16:20:52;9.27;;;7.13;;
76157;SDS011;64907;51.574;6.502;2023-03-01T16:23:18;9.65;;;7.70;;